PDT,Max TemperatureF,Mean TemperatureF,Min TemperatureF,Max Dew PointF,MeanDew PointF,Min DewpointF,Max Humidity, Mean Humidity, Min Humidity, Max Sea Level PressureIn, Mean Sea Level PressureIn, Min Sea Level PressureIn, Max VisibilityMiles, Mean VisibilityMiles, Min VisibilityMiles, Max Wind SpeedMPH, Mean Wind SpeedMPH, Max Gust SpeedMPH,PrecipitationIn, CloudCover, Events, WindDirDegrees
2011-10-1,75,68,60,58,55,53,84,67,49,30.04,30.02,29.99,10,10,10,17,4,32,0.00,6,,202
2011-10-2,71,64,56,57,55,54,93,75,57,30.10,30.04,30.01,10,10,10,13,4,18,0.00,6,,127
2011-10-3,69,61,52,57,53,48,93,70,47,30.01,29.95,29.90,10,8,1,13,3,17,0.47,6,Rain,265
2011-10-4,67,62,56,57,55,51,93,78,63,29.97,29.92,29.82,10,9,2,12,5,18,0.23,7,Rain,197
2011-10-5,66,58,49,58,53,46,100,80,60,29.91,29.77,29.67,10,6,1,22,6,29,1.15,6,Rain-Thunderstorm,261
2011-10-6,64,56,47,54,50,44,93,79,65,30.09,29.97,29.91,10,10,8,13,3,15,0.03,4,Rain,275
2011-10-7,69,58,46,54,48,43,93,71,49,30.18,30.13,30.09,10,10,9,13,3,16,0.01,0,,271
2011-10-8,71,60,49,55,51,46,93,72,51,30.13,30.08,30.04,10,10,9,9,4,12,0.00,2,,44
2011-10-9,74,64,54,56,54,51,93,71,49,30.06,30.01,29.94,10,7,1,12,3,22,0.00,5,,152
2011-10-10,70,61,52,61,57,50,100,84,68,30.04,30.00,29.97,10,4,0,8,1,23,0.02,7,Fog-Rain,208
2011-10-11,75,66,57,63,59,55,93,79,64,30.08,30.05,30.02,10,4,0,10,2,,0.01,6,Fog,181
2011-10-12,85,71,57,60,57,54,86,62,37,30.08,30.03,29.94,10,8,1,6,3,,0.00,2,,300
2011-10-13,92,73,53,56,50,40,78,48,17,29.97,29.88,29.78,10,10,9,8,2,21,0.00,0,,271
2011-10-14,84,71,57,56,52,49,84,59,33,29.85,29.82,29.79,10,10,10,13,4,23,0.00,0,,272
2011-10-15,69,63,56,57,56,54,93,78,63,29.99,29.92,29.85,10,8,0,16,7,22,0.00,5,Fog,265
2011-10-16,73,65,56,57,56,53,93,77,61,30.08,30.04,29.99,10,10,8,12,2,16,0.00,2,,243
2011-10-17,88,71,53,59,55,51,93,68,43,30.10,30.05,30.00,10,6,0,12,2,13,0.01,3,Fog,194
2011-10-18,61,58,55,56,55,54,93,87,80,30.09,30.05,30.03,10,4,0,10,2,24,0.02,8,Fog,218
2011-10-19,68,61,53,56,54,51,93,78,63,30.06,30.03,29.98,10,9,2,10,3,22,0.00,5,,156
2011-10-20,66,58,49,55,52,46,96,84,72,30.10,30.04,30.00,10,6,0,9,2,26,0.01,5,Fog,158
2011-10-21,67,61,54,56,54,51,93,81,68,30.19,30.14,30.09,10,5,0,8,2,21,0.00,5,Fog,180
2011-10-22,90,71,52,56,52,50,93,60,27,30.11,30.04,29.95,10,10,7,8,2,21,0.00,0,,343
2011-10-23,91,72,52,52,49,44,83,55,26,29.98,29.95,29.90,10,10,10,14,3,17,0.00,0,,258
2011-10-24,64,58,51,56,53,48,96,85,73,30.07,30.02,29.97,10,6,0,10,3,16,0.00,7,Fog,250
2011-10-25,64,58,51,52,50,48,89,75,60,30.11,30.07,30.05,10,10,9,12,4,17,0.00,5,,227
2011-10-26,70,58,46,52,47,38,89,64,39,30.14,30.09,30.05,10,9,6,12,2,26,0.00,3,,227
2011-10-27,76,58,40,52,38,31,86,54,21,30.07,30.04,30.00,10,10,8,10,3,25,0.00,0,,270
2011-10-28,78,61,44,52,42,36,86,56,25,30.12,30.09,30.05,10,10,10,8,2,10,0.00,0,,247
2011-10-29,80,63,46,51,43,39,86,56,26,30.14,30.10,30.04,10,10,10,9,3,13,0.00,0,,282
2011-10-30,79,63,46,54,48,41,93,62,30,30.11,30.07,30.03,10,5,0,8,2,21,0.00,1,Fog,183
2011-10-31,76,61,46,54,49,44,93,66,38,30.08,30.04,29.98,10,5,0,12,3,14,0.00,2,Fog,160